sensor_id;sensor_type;location;lat;lon;timestamp;temperature;humidity
435;DHT22;204;48.942;9.256;2022-08-19T00:01:47;22.40;99.90
435;DHT22;204;48.942;9.256;2022-08-19T00:04:15;22.40;99.90
435;DHT22;204;48.942;9.256;2022-08-19T00:06:43;22.40;99.90
435;DHT22;204;48.942;9.256;2022-08-19T00:09:12;22.40;99.90
435;DHT22;204;48.942;9.256;2022-08-19T00:11:38;22.40;99.90
435;DHT22;204;48.942;9.256;2022-08-19T00:14:06;22.40;99.90
435;DHT22;204;48.942;9.256;2022-08-19T00:16:32;22.40;99.90
435;DHT22;204;48.942;9.256;2022-08-19T00:18:58;22.40;99.90
435;DHT22;204;48.942;9.256;2022-08-19T00:21:25;22.40;99.90
435;DHT22;204;48.942;9.256;2022-08-19T00:23:52;22.40;99.90
435;DHT22;204;48.942;9.256;2022-08-19T00:26:18;22.40;99.90
435;DHT22;204;48.942;9.256;2022-08-19T00:28:44;22.40;99.90
435;DHT22;204;48.942;9.256;2022-08-19T00:31:10;22.40;99.90
435;DHT22;204;48.942;9.256;2022-08-19T00:33:36;22.40;99.90
435;DHT22;204;48.942;9.256;2022-08-19T00:36:05;22.40;99.90
435;DHT22;204;48.942;9.256;2022-08-19T00:38:32;22.40;99.90
435;DHT22;204;48.942;9.256;2022-08-19T00:40:57;22.40;99.90
435;DHT22;204;48.942;9.256;2022-08-19T00:43:25;22.40;99.90
435;DHT22;204;48.942;9.256;2022-08-19T00:45:51;22.40;99.90
435;DHT22;204;48.942;9.256;2022-08-19T00:48:18;22.40;99.90
435;DHT22;204;48.942;9.256;2022-08-19T00:50:45;22.30;99.90
435;DHT22;204;48.942;9.256;2022-08-19T00:53:15;22.30;99.90
435;DHT22;204;48.942;9.256;2022-08-19T00:55:45;22.30;99.90
435;DHT22;204;48.942;9.256;2022-08-19T00:58:14;22.30;99.90
435;DHT22;204;48.942;9.256;2022-08-19T01:00:40;22.30;99.90
435;DHT22;204;48.942;9.256;2022-08-19T01:03:08;22.30;99.90
435;DHT22;204;48.942;9.256;2022-08-19T01:05:34;22.30;99.90
435;DHT22;204;48.942;9.256;2022-08-19T01:08:03;22.30;99.90
435;DHT22;204;48.942;9.256;2022-08-19T01:10:33;22.30;99.90
435;DHT22;204;48.942;9.256;2022-08-19T01:13:01;22.30;99.90
435;DHT22;204;48.942;9.256;2022-08-19T01:15:33;22.30;99.90
435;DHT22;204;48.942;9.256;2022-08-19T01:18:07;22.30;99.90
435;DHT22;204;48.942;9.256;2022-08-19T01:20:33;22.30;99.90
435;DHT22;204;48.942;9.256;2022-08-19T01:23:00;22.30;99.90
435;DHT22;204;48.942;9.256;2022-08-19T01:25:45;22.30;99.90
435;DHT22;204;48.942;9.256;2022-08-19T01:28:20;22.30;99.90
435;DHT22;204;48.942;9.256;2022-08-19T01:30:47;22.30;99.90
435;DHT22;204;48.942;9.256;2022-08-19T01:33:13;22.30;99.90
435;DHT22;204;48.942;9.256;2022-08-19T01:35:40;22.20;99.90
435;DHT22;204;48.942;9.256;2022-08-19T01:38:09;22.20;99.90
435;DHT22;204;48.942;9.256;2022-08-19T01:40:38;22.20;99.90
435;DHT22;204;48.942;9.256;2022-08-19T01:43:04;22.20;99.90
435;DHT22;204;48.942;9.256;2022-08-19T01:45:32;22.20;99.90
435;DHT22;204;48.942;9.256;2022-08-19T01:47:59;22.20;99.90
435;DHT22;204;48.942;9.256;2022-08-19T01:50:25;22.10;99.90
435;DHT22;204;48.942;9.256;2022-08-19T01:52:51;22.10;99.90
435;DHT22;204;48.942;9.256;2022-08-19T01:55:19;22.10;99.90
435;DHT22;204;48.942;9.256;2022-08-19T01:57:49;22.10;99.90
435;DHT22;204;48.942;9.256;2022-08-19T02:00:18;22.10;99.90
435;DHT22;204;48.942;9.256;2022-08-19T02:02:44;22.10;99.90
435;DHT22;204;48.942;9.256;2022-08-19T02:05:10;22.10;99.90
435;DHT22;204;48.942;9.256;2022-08-19T02:07:37;22.00;99.90
435;DHT22;204;48.942;9.256;2022-08-19T02:10:06;22.00;99.90
435;DHT22;204;48.942;9.256;2022-08-19T02:12:32;22.00;99.90
435;DHT22;204;48.942;9.256;2022-08-19T02:14:58;21.90;99.90
435;DHT22;204;48.942;9.256;2022-08-19T02:17:24;21.90;99.90
435;DHT22;204;48.942;9.256;2022-08-19T02:19:50;21.90;99.90
435;DHT22;204;48.942;9.256;2022-08-19T02:22:15;21.80;99.90
435;DHT22;204;48.942;9.256;2022-08-19T02:24:41;21.70;99.90
435;DHT22;204;48.942;9.256;2022-08-19T02:27:06;21.70;99.90
435;DHT22;204;48.942;9.256;2022-08-19T02:29:32;21.70;99.90
435;DHT22;204;48.942;9.256;2022-08-19T02:31:57;21.70;99.90
435;DHT22;204;48.942;9.256;2022-08-19T02:34:23;21.70;99.90
435;DHT22;204;48.942;9.256;2022-08-19T02:36:50;21.60;99.90
435;DHT22;204;48.942;9.256;2022-08-19T02:39:16;21.60;99.90
435;DHT22;204;48.942;9.256;2022-08-19T02:41:42;21.60;99.90
435;DHT22;204;48.942;9.256;2022-08-19T02:44:07;21.60;99.90
435;DHT22;204;48.942;9.256;2022-08-19T02:46:34;21.60;99.90
435;DHT22;204;48.942;9.256;2022-08-19T02:49:05;21.60;99.90
435;DHT22;204;48.942;9.256;2022-08-19T02:51:38;21.60;99.90
435;DHT22;204;48.942;9.256;2022-08-19T02:54:05;21.60;99.90
435;DHT22;204;48.942;9.256;2022-08-19T02:56:31;21.60;99.90
435;DHT22;204;48.942;9.256;2022-08-19T02:58:57;21.60;99.90
435;DHT22;204;48.942;9.256;2022-08-19T03:01:27;21.60;99.90
435;DHT22;204;48.942;9.256;2022-08-19T03:03:54;21.50;99.90
435;DHT22;204;48.942;9.256;2022-08-19T03:06:21;21.50;99.90
435;DHT22;204;48.942;9.256;2022-08-19T03:08:47;21.50;99.90
435;DHT22;204;48.942;9.256;2022-08-19T03:11:17;21.50;99.90
435;DHT22;204;48.942;9.256;2022-08-19T03:13:43;21.50;99.90
435;DHT22;204;48.942;9.256;2022-08-19T03:16:10;21.40;99.90
435;DHT22;204;48.942;9.256;2022-08-19T03:18:36;21.40;99.90
435;DHT22;204;48.942;9.256;2022-08-19T03:21:02;21.50;99.90
435;DHT22;204;48.942;9.256;2022-08-19T03:23:27;21.50;99.90
435;DHT22;204;48.942;9.256;2022-08-19T03:25:53;21.40;99.90
435;DHT22;204;48.942;9.256;2022-08-19T03:28:20;21.40;99.90
435;DHT22;204;48.942;9.256;2022-08-19T03:30:57;21.40;99.90
435;DHT22;204;48.942;9.256;2022-08-19T03:33:28;21.40;99.90
435;DHT22;204;48.942;9.256;2022-08-19T03:38:31;21.40;99.90
435;DHT22;204;48.942;9.256;2022-08-19T03:40:57;21.40;99.90
435;DHT22;204;48.942;9.256;2022-08-19T03:43:23;21.40;99.90
435;DHT22;204;48.942;9.256;2022-08-19T03:45:59;21.40;99.90
435;DHT22;204;48.942;9.256;2022-08-19T03:48:26;21.40;99.90
435;DHT22;204;48.942;9.256;2022-08-19T03:50:52;21.40;99.90
435;DHT22;204;48.942;9.256;2022-08-19T03:53:17;21.30;99.90
435;DHT22;204;48.942;9.256;2022-08-19T03:55:43;21.30;99.90
435;DHT22;204;48.942;9.256;2022-08-19T03:58:08;21.30;99.90
435;DHT22;204;48.942;9.256;2022-08-19T04:00:36;21.20;99.90
435;DHT22;204;48.942;9.256;2022-08-19T04:03:02;21.20;99.90
435;DHT22;204;48.942;9.256;2022-08-19T04:05:28;21.10;99.90
435;DHT22;204;48.942;9.256;2022-08-19T04:07:54;21.10;99.90
435;DHT22;204;48.942;9.256;2022-08-19T04:10:24;21.00;99.90
435;DHT22;204;48.942;9.256;2022-08-19T04:12:50;21.00;99.90
435;DHT22;204;48.942;9.256;2022-08-19T04:15:15;21.00;99.90
435;DHT22;204;48.942;9.256;2022-08-19T04:17:41;21.00;99.90
435;DHT22;204;48.942;9.256;2022-08-19T04:20:07;21.00;99.90
435;DHT22;204;48.942;9.256;2022-08-19T04:22:33;21.10;99.90
435;DHT22;204;48.942;9.256;2022-08-19T04:24:58;21.10;99.90
435;DHT22;204;48.942;9.256;2022-08-19T04:27:24;21.00;99.90
435;DHT22;204;48.942;9.256;2022-08-19T04:29:49;21.00;99.90
435;DHT22;204;48.942;9.256;2022-08-19T04:32:15;21.00;99.90
435;DHT22;204;48.942;9.256;2022-08-19T04:34:41;21.00;99.90
435;DHT22;204;48.942;9.256;2022-08-19T04:37:08;21.00;99.90
435;DHT22;204;48.942;9.256;2022-08-19T04:39:38;21.00;99.90
435;DHT22;204;48.942;9.256;2022-08-19T04:42:22;21.00;99.90
435;DHT22;204;48.942;9.256;2022-08-19T04:45:09;21.00;99.90
435;DHT22;204;48.942;9.256;2022-08-19T04:47:41;21.10;99.90
435;DHT22;204;48.942;9.256;2022-08-19T04:50:07;21.10;99.90
435;DHT22;204;48.942;9.256;2022-08-19T04:52:34;21.10;99.90
435;DHT22;204;48.942;9.256;2022-08-19T04:55:00;21.10;99.90
435;DHT22;204;48.942;9.256;2022-08-19T04:57:25;21.10;99.90
435;DHT22;204;48.942;9.256;2022-08-19T04:59:56;21.10;99.90
435;DHT22;204;48.942;9.256;2022-08-19T05:02:22;21.20;99.90
435;DHT22;204;48.942;9.256;2022-08-19T05:04:56;21.20;99.90
435;DHT22;204;48.942;9.256;2022-08-19T05:07:22;21.20;99.90
435;DHT22;204;48.942;9.256;2022-08-19T05:09:47;21.30;99.90
435;DHT22;204;48.942;9.256;2022-08-19T05:12:13;21.30;99.90
435;DHT22;204;48.942;9.256;2022-08-19T05:14:39;21.40;99.90
435;DHT22;204;48.942;9.256;2022-08-19T05:17:04;21.40;99.90
435;DHT22;204;48.942;9.256;2022-08-19T05:19:30;21.40;99.90
435;DHT22;204;48.942;9.256;2022-08-19T05:22:14;21.50;99.90
435;DHT22;204;48.942;9.256;2022-08-19T05:25:04;21.50;99.90
435;DHT22;204;48.942;9.256;2022-08-19T05:27:31;21.60;99.90
435;DHT22;204;48.942;9.256;2022-08-19T05:29:57;21.60;99.90
435;DHT22;204;48.942;9.256;2022-08-19T05:32:23;21.70;99.90
435;DHT22;204;48.942;9.256;2022-08-19T05:34:48;21.70;99.90
435;DHT22;204;48.942;9.256;2022-08-19T05:37:14;21.80;99.90
435;DHT22;204;48.942;9.256;2022-08-19T05:39:40;21.80;99.90
435;DHT22;204;48.942;9.256;2022-08-19T05:42:10;21.90;99.90
435;DHT22;204;48.942;9.256;2022-08-19T05:44:38;21.80;99.90
435;DHT22;204;48.942;9.256;2022-08-19T05:47:06;21.80;99.90
435;DHT22;204;48.942;9.256;2022-08-19T05:49:34;21.90;99.90
435;DHT22;204;48.942;9.256;2022-08-19T05:52:03;21.90;99.90
435;DHT22;204;48.942;9.256;2022-08-19T05:54:29;21.90;99.90
435;DHT22;204;48.942;9.256;2022-08-19T05:56:56;21.90;99.90
435;DHT22;204;48.942;9.256;2022-08-19T05:59:22;22.00;99.90
435;DHT22;204;48.942;9.256;2022-08-19T06:01:50;21.90;99.90
435;DHT22;204;48.942;9.256;2022-08-19T06:04:18;21.90;99.90
435;DHT22;204;48.942;9.256;2022-08-19T06:06:48;21.90;99.90
435;DHT22;204;48.942;9.256;2022-08-19T06:09:14;21.90;99.90
435;DHT22;204;48.942;9.256;2022-08-19T06:14:13;21.90;99.90
435;DHT22;204;48.942;9.256;2022-08-19T06:16:40;21.90;99.90
435;DHT22;204;48.942;9.256;2022-08-19T06:19:08;21.90;99.90
435;DHT22;204;48.942;9.256;2022-08-19T06:21:36;22.00;99.90
435;DHT22;204;48.942;9.256;2022-08-19T06:24:04;22.00;99.90
435;DHT22;204;48.942;9.256;2022-08-19T06:26:30;22.10;99.90
435;DHT22;204;48.942;9.256;2022-08-19T06:28:56;22.10;99.90
435;DHT22;204;48.942;9.256;2022-08-19T06:31:24;22.10;99.90
435;DHT22;204;48.942;9.256;2022-08-19T06:33:51;22.10;99.90
435;DHT22;204;48.942;9.256;2022-08-19T06:36:21;22.10;99.90
435;DHT22;204;48.942;9.256;2022-08-19T06:38:47;22.10;99.90
435;DHT22;204;48.942;9.256;2022-08-19T06:41:12;22.20;99.90
435;DHT22;204;48.942;9.256;2022-08-19T06:43:38;22.20;99.90
435;DHT22;204;48.942;9.256;2022-08-19T06:46:04;22.40;99.90
435;DHT22;204;48.942;9.256;2022-08-19T06:48:35;22.60;99.90
435;DHT22;204;48.942;9.256;2022-08-19T06:51:01;22.80;99.90
435;DHT22;204;48.942;9.256;2022-08-19T06:53:28;22.80;99.90
435;DHT22;204;48.942;9.256;2022-08-19T06:55:54;23.10;99.90
435;DHT22;204;48.942;9.256;2022-08-19T06:58:25;23.10;99.90
435;DHT22;204;48.942;9.256;2022-08-19T07:00:51;23.30;99.90
435;DHT22;204;48.942;9.256;2022-08-19T07:03:16;23.40;99.90
435;DHT22;204;48.942;9.256;2022-08-19T07:05:43;23.60;99.90
435;DHT22;204;48.942;9.256;2022-08-19T07:08:09;23.70;99.90
435;DHT22;204;48.942;9.256;2022-08-19T07:10:35;23.60;99.90
435;DHT22;204;48.942;9.256;2022-08-19T07:13:02;23.70;99.90
435;DHT22;204;48.942;9.256;2022-08-19T07:15:29;23.60;99.90
435;DHT22;204;48.942;9.256;2022-08-19T07:17:55;23.60;99.90
435;DHT22;204;48.942;9.256;2022-08-19T07:20:20;23.50;99.90
435;DHT22;204;48.942;9.256;2022-08-19T07:22:46;23.50;99.90
435;DHT22;204;48.942;9.256;2022-08-19T07:25:12;23.50;99.90
435;DHT22;204;48.942;9.256;2022-08-19T07:27:38;23.40;99.90
435;DHT22;204;48.942;9.256;2022-08-19T07:30:05;23.30;99.90
435;DHT22;204;48.942;9.256;2022-08-19T07:32:31;23.20;99.90
435;DHT22;204;48.942;9.256;2022-08-19T07:34:57;23.00;99.90
435;DHT22;204;48.942;9.256;2022-08-19T07:37:25;22.90;99.90
435;DHT22;204;48.942;9.256;2022-08-19T07:39:53;22.80;99.90
435;DHT22;204;48.942;9.256;2022-08-19T07:42:19;22.60;99.90
435;DHT22;204;48.942;9.256;2022-08-19T07:44:46;22.60;99.90
435;DHT22;204;48.942;9.256;2022-08-19T07:47:12;22.40;99.90
435;DHT22;204;48.942;9.256;2022-08-19T07:49:38;22.40;99.90
435;DHT22;204;48.942;9.256;2022-08-19T07:52:07;22.30;99.90
435;DHT22;204;48.942;9.256;2022-08-19T07:54:35;22.30;99.90
435;DHT22;204;48.942;9.256;2022-08-19T07:57:02;22.20;99.90
435;DHT22;204;48.942;9.256;2022-08-19T07:59:28;22.30;99.90
435;DHT22;204;48.942;9.256;2022-08-19T08:01:55;22.20;99.90
435;DHT22;204;48.942;9.256;2022-08-19T08:04:21;22.20;99.90
435;DHT22;204;48.942;9.256;2022-08-19T08:07:07;22.20;99.90
435;DHT22;204;48.942;9.256;2022-08-19T08:09:52;22.20;99.90
435;DHT22;204;48.942;9.256;2022-08-19T08:12:24;22.20;99.90
435;DHT22;204;48.942;9.256;2022-08-19T08:14:55;22.20;99.90
435;DHT22;204;48.942;9.256;2022-08-19T08:17:24;22.30;99.90
435;DHT22;204;48.942;9.256;2022-08-19T08:19:50;22.40;99.90
435;DHT22;204;48.942;9.256;2022-08-19T08:22:18;22.40;99.90
435;DHT22;204;48.942;9.256;2022-08-19T08:25:06;22.50;99.90
435;DHT22;204;48.942;9.256;2022-08-19T08:27:36;22.60;99.90
435;DHT22;204;48.942;9.256;2022-08-19T08:30:03;22.70;99.90
435;DHT22;204;48.942;9.256;2022-08-19T08:32:29;22.80;99.90
435;DHT22;204;48.942;9.256;2022-08-19T08:34:55;23.00;99.90
435;DHT22;204;48.942;9.256;2022-08-19T08:37:21;23.10;99.90
435;DHT22;204;48.942;9.256;2022-08-19T08:39:47;23.20;99.90
435;DHT22;204;48.942;9.256;2022-08-19T08:42:23;23.30;99.90
435;DHT22;204;48.942;9.256;2022-08-19T08:45:05;23.40;99.90
435;DHT22;204;48.942;9.256;2022-08-19T08:47:35;23.60;99.90
435;DHT22;204;48.942;9.256;2022-08-19T08:50:06;23.90;99.90
435;DHT22;204;48.942;9.256;2022-08-19T08:52:37;24.00;99.90
435;DHT22;204;48.942;9.256;2022-08-19T08:55:11;24.20;99.90
435;DHT22;204;48.942;9.256;2022-08-19T08:57:39;24.40;99.90
435;DHT22;204;48.942;9.256;2022-08-19T09:00:09;24.50;99.90
435;DHT22;204;48.942;9.256;2022-08-19T09:02:35;24.60;99.90
435;DHT22;204;48.942;9.256;2022-08-19T09:05:01;24.70;99.90
435;DHT22;204;48.942;9.256;2022-08-19T09:08:02;24.80;99.90
435;DHT22;204;48.942;9.256;2022-08-19T09:10:43;24.90;99.90
435;DHT22;204;48.942;9.256;2022-08-19T09:13:31;25.10;99.90
435;DHT22;204;48.942;9.256;2022-08-19T09:16:06;25.30;99.90
435;DHT22;204;48.942;9.256;2022-08-19T09:18:46;25.50;99.90
435;DHT22;204;48.942;9.256;2022-08-19T09:21:13;25.60;99.90
435;DHT22;204;48.942;9.256;2022-08-19T09:23:39;25.60;99.90
435;DHT22;204;48.942;9.256;2022-08-19T09:26:13;25.50;99.90
435;DHT22;204;48.942;9.256;2022-08-19T09:28:44;25.50;99.90
435;DHT22;204;48.942;9.256;2022-08-19T09:31:15;25.40;99.90
435;DHT22;204;48.942;9.256;2022-08-19T09:33:41;25.30;99.90
435;DHT22;204;48.942;9.256;2022-08-19T09:36:11;25.10;99.90
435;DHT22;204;48.942;9.256;2022-08-19T09:38:38;24.90;99.90
435;DHT22;204;48.942;9.256;2022-08-19T09:41:09;24.80;99.90
435;DHT22;204;48.942;9.256;2022-08-19T09:43:37;24.60;99.90
435;DHT22;204;48.942;9.256;2022-08-19T09:46:04;24.50;99.90
435;DHT22;204;48.942;9.256;2022-08-19T09:48:35;24.30;99.90
435;DHT22;204;48.942;9.256;2022-08-19T09:51:11;24.30;99.90
435;DHT22;204;48.942;9.256;2022-08-19T09:53:38;24.20;99.90
435;DHT22;204;48.942;9.256;2022-08-19T09:56:05;24.30;99.90
435;DHT22;204;48.942;9.256;2022-08-19T09:58:32;24.40;99.90
435;DHT22;204;48.942;9.256;2022-08-19T10:00:59;24.40;99.90
435;DHT22;204;48.942;9.256;2022-08-19T10:03:27;24.30;99.90
435;DHT22;204;48.942;9.256;2022-08-19T10:05:53;24.30;99.90
435;DHT22;204;48.942;9.256;2022-08-19T10:08:22;24.30;99.90
435;DHT22;204;48.942;9.256;2022-08-19T10:10:49;24.30;99.90
435;DHT22;204;48.942;9.256;2022-08-19T10:13:19;24.30;99.90
435;DHT22;204;48.942;9.256;2022-08-19T10:15:51;24.30;99.90
435;DHT22;204;48.942;9.256;2022-08-19T10:18:19;24.30;99.90
435;DHT22;204;48.942;9.256;2022-08-19T10:20:49;24.20;99.90
435;DHT22;204;48.942;9.256;2022-08-19T10:23:16;24.10;99.90
435;DHT22;204;48.942;9.256;2022-08-19T10:25:42;24.20;99.90
435;DHT22;204;48.942;9.256;2022-08-19T10:28:08;24.20;99.90
435;DHT22;204;48.942;9.256;2022-08-19T10:30:41;24.20;99.90
435;DHT22;204;48.942;9.256;2022-08-19T10:33:07;24.20;99.90
435;DHT22;204;48.942;9.256;2022-08-19T10:35:32;24.30;99.90
435;DHT22;204;48.942;9.256;2022-08-19T10:37:58;24.40;99.90
435;DHT22;204;48.942;9.256;2022-08-19T10:40:26;24.60;99.90
435;DHT22;204;48.942;9.256;2022-08-19T10:42:52;24.80;99.90
435;DHT22;204;48.942;9.256;2022-08-19T10:45:18;25.00;99.90
435;DHT22;204;48.942;9.256;2022-08-19T10:47:43;25.20;99.90
435;DHT22;204;48.942;9.256;2022-08-19T10:50:09;25.40;99.90
435;DHT22;204;48.942;9.256;2022-08-19T10:52:53;25.60;99.90
435;DHT22;204;48.942;9.256;2022-08-19T10:55:22;25.90;99.90
435;DHT22;204;48.942;9.256;2022-08-19T10:58:15;26.20;99.90
435;DHT22;204;48.942;9.256;2022-08-19T11:00:41;26.70;99.90
435;DHT22;204;48.942;9.256;2022-08-19T11:03:08;27.00;99.90
435;DHT22;204;48.942;9.256;2022-08-19T11:05:33;27.10;99.90
435;DHT22;204;48.942;9.256;2022-08-19T11:07:59;27.00;99.90
435;DHT22;204;48.942;9.256;2022-08-19T11:10:25;26.80;99.90
435;DHT22;204;48.942;9.256;2022-08-19T11:12:51;26.80;99.90
435;DHT22;204;48.942;9.256;2022-08-19T11:15:20;26.80;99.90
435;DHT22;204;48.942;9.256;2022-08-19T11:17:45;26.80;99.90
435;DHT22;204;48.942;9.256;2022-08-19T11:20:13;26.90;99.90
435;DHT22;204;48.942;9.256;2022-08-19T11:22:39;27.00;99.90
435;DHT22;204;48.942;9.256;2022-08-19T11:25:06;27.20;99.90
435;DHT22;204;48.942;9.256;2022-08-19T11:27:32;27.40;99.90
435;DHT22;204;48.942;9.256;2022-08-19T11:29:59;27.40;99.90
435;DHT22;204;48.942;9.256;2022-08-19T11:32:24;27.50;99.90
435;DHT22;204;48.942;9.256;2022-08-19T11:34:50;27.60;99.90
435;DHT22;204;48.942;9.256;2022-08-19T11:37:15;27.70;99.90
435;DHT22;204;48.942;9.256;2022-08-19T11:39:41;27.80;99.90
435;DHT22;204;48.942;9.256;2022-08-19T11:42:07;27.80;99.90
435;DHT22;204;48.942;9.256;2022-08-19T11:44:53;28.10;99.90
435;DHT22;204;48.942;9.256;2022-08-19T11:47:19;28.20;99.90
435;DHT22;204;48.942;9.256;2022-08-19T11:49:46;28.40;99.90
435;DHT22;204;48.942;9.256;2022-08-19T11:52:12;28.60;99.90
435;DHT22;204;48.942;9.256;2022-08-19T11:54:37;28.90;99.90
435;DHT22;204;48.942;9.256;2022-08-19T11:57:04;29.10;99.90
435;DHT22;204;48.942;9.256;2022-08-19T11:59:29;29.30;99.90
435;DHT22;204;48.942;9.256;2022-08-19T12:01:55;29.50;99.90
435;DHT22;204;48.942;9.256;2022-08-19T12:04:22;29.60;99.90
435;DHT22;204;48.942;9.256;2022-08-19T12:06:48;29.60;99.90
435;DHT22;204;48.942;9.256;2022-08-19T12:09:15;29.40;99.90
435;DHT22;204;48.942;9.256;2022-08-19T12:11:41;29.20;99.90
435;DHT22;204;48.942;9.256;2022-08-19T12:14:10;28.80;99.90
435;DHT22;204;48.942;9.256;2022-08-19T12:16:36;28.60;99.90
435;DHT22;204;48.942;9.256;2022-08-19T12:19:03;28.30;99.90
435;DHT22;204;48.942;9.256;2022-08-19T12:21:31;28.30;99.90
435;DHT22;204;48.942;9.256;2022-08-19T12:23:59;28.20;99.90
435;DHT22;204;48.942;9.256;2022-08-19T12:26:27;28.00;99.90
435;DHT22;204;48.942;9.256;2022-08-19T12:28:53;27.90;99.90
435;DHT22;204;48.942;9.256;2022-08-19T12:31:19;27.80;99.90
435;DHT22;204;48.942;9.256;2022-08-19T12:33:46;27.70;99.90
435;DHT22;204;48.942;9.256;2022-08-19T12:36:14;27.50;99.90
435;DHT22;204;48.942;9.256;2022-08-19T12:38:40;27.20;99.90
435;DHT22;204;48.942;9.256;2022-08-19T12:41:08;26.70;99.90
435;DHT22;204;48.942;9.256;2022-08-19T12:43:36;26.20;99.90
435;DHT22;204;48.942;9.256;2022-08-19T12:46:04;25.70;99.90
435;DHT22;204;48.942;9.256;2022-08-19T12:48:30;25.30;99.90
435;DHT22;204;48.942;9.256;2022-08-19T12:50:56;25.00;99.90
435;DHT22;204;48.942;9.256;2022-08-19T12:53:22;24.80;99.90
435;DHT22;204;48.942;9.256;2022-08-19T12:55:47;24.70;99.90
435;DHT22;204;48.942;9.256;2022-08-19T12:58:13;24.70;99.90
435;DHT22;204;48.942;9.256;2022-08-19T13:00:39;24.70;99.90
435;DHT22;204;48.942;9.256;2022-08-19T13:03:05;24.60;99.90
435;DHT22;204;48.942;9.256;2022-08-19T13:05:32;24.60;99.90
435;DHT22;204;48.942;9.256;2022-08-19T13:08:00;24.70;99.90
435;DHT22;204;48.942;9.256;2022-08-19T13:10:32;24.80;99.90
435;DHT22;204;48.942;9.256;2022-08-19T13:13:01;25.00;99.90
435;DHT22;204;48.942;9.256;2022-08-19T13:15:27;25.10;99.90
435;DHT22;204;48.942;9.256;2022-08-19T13:17:54;25.30;99.90
435;DHT22;204;48.942;9.256;2022-08-19T13:20:21;25.30;99.90
435;DHT22;204;48.942;9.256;2022-08-19T13:22:47;25.30;99.90
435;DHT22;204;48.942;9.256;2022-08-19T13:25:14;25.20;99.90
435;DHT22;204;48.942;9.256;2022-08-19T13:27:41;25.10;99.90
435;DHT22;204;48.942;9.256;2022-08-19T13:30:09;25.10;99.90
435;DHT22;204;48.942;9.256;2022-08-19T13:32:54;25.10;99.90
435;DHT22;204;48.942;9.256;2022-08-19T13:38:10;25.20;99.90
435;DHT22;204;48.942;9.256;2022-08-19T13:40:37;25.20;99.90
435;DHT22;204;48.942;9.256;2022-08-19T13:43:04;25.20;99.90
435;DHT22;204;48.942;9.256;2022-08-19T13:45:31;25.20;99.90
435;DHT22;204;48.942;9.256;2022-08-19T13:48:02;25.30;99.90
435;DHT22;204;48.942;9.256;2022-08-19T13:50:31;25.30;99.90
435;DHT22;204;48.942;9.256;2022-08-19T13:52:58;25.30;99.90
435;DHT22;204;48.942;9.256;2022-08-19T13:55:25;25.30;99.90
435;DHT22;204;48.942;9.256;2022-08-19T13:57:53;25.40;99.90
435;DHT22;204;48.942;9.256;2022-08-19T14:00:20;25.40;99.90
435;DHT22;204;48.942;9.256;2022-08-19T14:02:49;25.40;99.90
435;DHT22;204;48.942;9.256;2022-08-19T14:05:16;25.40;99.90
435;DHT22;204;48.942;9.256;2022-08-19T14:07:43;25.40;99.90
435;DHT22;204;48.942;9.256;2022-08-19T14:10:11;25.30;99.90
435;DHT22;204;48.942;9.256;2022-08-19T14:12:37;25.30;99.90
435;DHT22;204;48.942;9.256;2022-08-19T14:15:05;25.10;99.90
435;DHT22;204;48.942;9.256;2022-08-19T14:17:32;25.10;99.90
435;DHT22;204;48.942;9.256;2022-08-19T14:20:01;25.00;99.90
435;DHT22;204;48.942;9.256;2022-08-19T14:22:29;24.80;99.90
435;DHT22;204;48.942;9.256;2022-08-19T14:24:56;24.70;99.90
435;DHT22;204;48.942;9.256;2022-08-19T14:27:22;24.50;99.90
435;DHT22;204;48.942;9.256;2022-08-19T14:29:53;24.40;99.90
435;DHT22;204;48.942;9.256;2022-08-19T14:32:20;24.40;99.90
435;DHT22;204;48.942;9.256;2022-08-19T14:34:46;24.30;99.90
435;DHT22;204;48.942;9.256;2022-08-19T14:37:13;24.20;99.90
435;DHT22;204;48.942;9.256;2022-08-19T14:39:42;24.10;99.90
435;DHT22;204;48.942;9.256;2022-08-19T14:42:08;24.10;99.90
435;DHT22;204;48.942;9.256;2022-08-19T14:44:34;24.20;99.90
435;DHT22;204;48.942;9.256;2022-08-19T14:47:00;24.20;99.90
435;DHT22;204;48.942;9.256;2022-08-19T14:49:26;24.20;99.90
435;DHT22;204;48.942;9.256;2022-08-19T14:51:52;24.30;99.90
435;DHT22;204;48.942;9.256;2022-08-19T14:54:17;24.30;99.90
435;DHT22;204;48.942;9.256;2022-08-19T14:56:43;24.40;99.90
435;DHT22;204;48.942;9.256;2022-08-19T14:59:09;24.40;99.90
435;DHT22;204;48.942;9.256;2022-08-19T15:01:35;24.40;99.90
435;DHT22;204;48.942;9.256;2022-08-19T15:04:00;24.30;99.90
435;DHT22;204;48.942;9.256;2022-08-19T15:06:27;24.30;99.90
435;DHT22;204;48.942;9.256;2022-08-19T15:08:53;24.10;99.90
435;DHT22;204;48.942;9.256;2022-08-19T15:11:21;24.10;99.90
435;DHT22;204;48.942;9.256;2022-08-19T15:13:48;24.00;99.90
435;DHT22;204;48.942;9.256;2022-08-19T15:16:15;23.80;99.90
435;DHT22;204;48.942;9.256;2022-08-19T15:18:42;23.70;99.90
435;DHT22;204;48.942;9.256;2022-08-19T15:21:11;23.60;99.90
435;DHT22;204;48.942;9.256;2022-08-19T15:23:38;23.60;99.90
435;DHT22;204;48.942;9.256;2022-08-19T15:26:04;23.50;99.90
435;DHT22;204;48.942;9.256;2022-08-19T15:28:30;23.40;99.90
435;DHT22;204;48.942;9.256;2022-08-19T15:30:57;23.40;99.90
435;DHT22;204;48.942;9.256;2022-08-19T15:33:23;23.40;99.90
435;DHT22;204;48.942;9.256;2022-08-19T15:35:49;23.40;99.90
435;DHT22;204;48.942;9.256;2022-08-19T15:38:16;23.40;99.90
435;DHT22;204;48.942;9.256;2022-08-19T15:40:45;23.50;99.90
435;DHT22;204;48.942;9.256;2022-08-19T15:43:13;23.60;99.90
435;DHT22;204;48.942;9.256;2022-08-19T15:45:40;23.70;99.90
435;DHT22;204;48.942;9.256;2022-08-19T15:48:06;23.70;99.90
435;DHT22;204;48.942;9.256;2022-08-19T15:50:32;23.80;99.90
435;DHT22;204;48.942;9.256;2022-08-19T15:53:05;23.90;99.90
435;DHT22;204;48.942;9.256;2022-08-19T15:55:33;24.10;99.90
435;DHT22;204;48.942;9.256;2022-08-19T15:58:03;24.10;99.90
435;DHT22;204;48.942;9.256;2022-08-19T16:00:48;24.20;99.90
435;DHT22;204;48.942;9.256;2022-08-19T16:03:32;24.40;99.90
435;DHT22;204;48.942;9.256;2022-08-19T16:06:16;24.50;99.90
435;DHT22;204;48.942;9.256;2022-08-19T16:08:54;24.70;99.90
435;DHT22;204;48.942;9.256;2022-08-19T16:11:22;25.00;99.90
435;DHT22;204;48.942;9.256;2022-08-19T16:13:51;25.30;99.90
435;DHT22;204;48.942;9.256;2022-08-19T16:16:18;25.40;99.90
435;DHT22;204;48.942;9.256;2022-08-19T16:18:44;25.40;99.90
435;DHT22;204;48.942;9.256;2022-08-19T16:21:15;25.40;99.90
435;DHT22;204;48.942;9.256;2022-08-19T16:23:44;25.40;99.90
435;DHT22;204;48.942;9.256;2022-08-19T16:26:11;25.40;99.90
435;DHT22;204;48.942;9.256;2022-08-19T16:28:37;25.40;99.90
435;DHT22;204;48.942;9.256;2022-08-19T16:31:03;25.40;99.90
435;DHT22;204;48.942;9.256;2022-08-19T16:33:29;25.50;99.90
435;DHT22;204;48.942;9.256;2022-08-19T16:35:55;25.50;99.90
435;DHT22;204;48.942;9.256;2022-08-19T16:38:21;25.50;99.90
435;DHT22;204;48.942;9.256;2022-08-19T16:40:47;25.60;99.90
435;DHT22;204;48.942;9.256;2022-08-19T16:43:18;25.60;99.90
435;DHT22;204;48.942;9.256;2022-08-19T16:45:47;25.50;99.90
435;DHT22;204;48.942;9.256;2022-08-19T16:48:12;25.40;99.90